sensor_id;sensor_type;location;lat;lon;timestamp;P1;durP1;ratioP1;P2;durP2;ratioP2
33206;SDS011;19565;46.602;11.534;2024-01-27T00:02:21;1.07;;;1.07;;
33206;SDS011;19565;46.602;11.534;2024-01-27T00:04:49;1.33;;;1.30;;
33206;SDS011;19565;46.602;11.534;2024-01-27T00:07:19;1.10;;;1.03;;
33206;SDS011;19565;46.602;11.534;2024-01-27T00:09:47;1.70;;;1.60;;
33206;SDS011;19565;46.602;11.534;2024-01-27T00:12:15;1.10;;;1.00;;
33206;SDS011;19565;46.602;11.534;2024-01-27T00:14:44;1.23;;;1.20;;
33206;SDS011;19565;46.602;11.534;2024-01-27T00:17:12;1.60;;;1.50;;
33206;SDS011;19565;46.602;11.534;2024-01-27T00:19:40;0.97;;;0.97;;
33206;SDS011;19565;46.602;11.534;2024-01-27T00:22:08;1.20;;;1.20;;
33206;SDS011;19565;46.602;11.534;2024-01-27T00:24:38;2.20;;;1.57;;
33206;SDS011;19565;46.602;11.534;2024-01-27T00:27:06;1.70;;;1.60;;
33206;SDS011;19565;46.602;11.534;2024-01-27T00:29:34;4.73;;;1.87;;
33206;SDS011;19565;46.602;11.534;2024-01-27T00:32:02;2.07;;;1.63;;
33206;SDS011;19565;46.602;11.534;2024-01-27T00:34:31;0.93;;;0.93;;
33206;SDS011;19565;46.602;11.534;2024-01-27T00:36:59;0.70;;;0.70;;
33206;SDS011;19565;46.602;11.534;2024-01-27T00:39:28;0.60;;;0.60;;
33206;SDS011;19565;46.602;11.534;2024-01-27T00:41:57;2.03;;;1.83;;
33206;SDS011;19565;46.602;11.534;2024-01-27T00:44:25;1.50;;;1.13;;
33206;SDS011;19565;46.602;11.534;2024-01-27T00:46:54;3.20;;;3.03;;
33206;SDS011;19565;46.602;11.534;2024-01-27T00:49:22;3.97;;;3.78;;
33206;SDS011;19565;46.602;11.534;2024-01-27T00:51:50;3.87;;;3.57;;
33206;SDS011;19565;46.602;11.534;2024-01-27T00:54:19;4.13;;;3.93;;
33206;SDS011;19565;46.602;11.534;2024-01-27T00:56:47;4.87;;;4.57;;
33206;SDS011;19565;46.602;11.534;2024-01-27T00:59:16;5.60;;;5.10;;
33206;SDS011;19565;46.602;11.534;2024-01-27T01:01:45;7.40;;;4.50;;
33206;SDS011;19565;46.602;11.534;2024-01-27T01:04:13;4.87;;;4.57;;
33206;SDS011;19565;46.602;11.534;2024-01-27T01:06:41;7.03;;;6.57;;
33206;SDS011;19565;46.602;11.534;2024-01-27T01:09:09;6.27;;;5.87;;
33206;SDS011;19565;46.602;11.534;2024-01-27T01:11:37;6.30;;;5.90;;
33206;SDS011;19565;46.602;11.534;2024-01-27T01:14:08;5.47;;;5.17;;
33206;SDS011;19565;46.602;11.534;2024-01-27T01:16:37;5.70;;;5.40;;
33206;SDS011;19565;46.602;11.534;2024-01-27T01:19:05;1.00;;;1.00;;
33206;SDS011;19565;46.602;11.534;2024-01-27T01:21:34;3.87;;;1.40;;
33206;SDS011;19565;46.602;11.534;2024-01-27T01:24:02;1.30;;;1.23;;
33206;SDS011;19565;46.602;11.534;2024-01-27T01:26:31;1.30;;;1.20;;
33206;SDS011;19565;46.602;11.534;2024-01-27T01:28:59;1.30;;;1.30;;
33206;SDS011;19565;46.602;11.534;2024-01-27T01:31:27;2.10;;;1.97;;
33206;SDS011;19565;46.602;11.534;2024-01-27T01:33:56;1.10;;;1.10;;
33206;SDS011;19565;46.602;11.534;2024-01-27T01:36:25;1.43;;;1.40;;
33206;SDS011;19565;46.602;11.534;2024-01-27T01:38:53;1.47;;;1.43;;
33206;SDS011;19565;46.602;11.534;2024-01-27T01:41:21;1.10;;;1.10;;
33206;SDS011;19565;46.602;11.534;2024-01-27T01:43:49;1.20;;;1.20;;
33206;SDS011;19565;46.602;11.534;2024-01-27T01:46:17;1.73;;;1.60;;
33206;SDS011;19565;46.602;11.534;2024-01-27T01:48:46;1.90;;;1.80;;
33206;SDS011;19565;46.602;11.534;2024-01-27T01:51:16;1.67;;;1.57;;
33206;SDS011;19565;46.602;11.534;2024-01-27T01:53:47;1.63;;;1.53;;
33206;SDS011;19565;46.602;11.534;2024-01-27T01:56:16;2.40;;;2.23;;
33206;SDS011;19565;46.602;11.534;2024-01-27T01:58:44;2.70;;;2.50;;
33206;SDS011;19565;46.602;11.534;2024-01-27T02:01:13;1.50;;;1.40;;
33206;SDS011;19565;46.602;11.534;2024-01-27T02:03:50;2.20;;;2.10;;
33206;SDS011;19565;46.602;11.534;2024-01-27T02:06:23;1.17;;;1.17;;
33206;SDS011;19565;46.602;11.534;2024-01-27T02:08:52;1.53;;;1.43;;
33206;SDS011;19565;46.602;11.534;2024-01-27T02:11:19;1.00;;;1.00;;
33206;SDS011;19565;46.602;11.534;2024-01-27T02:13:48;1.10;;;1.10;;
33206;SDS011;19565;46.602;11.534;2024-01-27T02:16:16;4.83;;;2.07;;
33206;SDS011;19565;46.602;11.534;2024-01-27T02:18:45;2.03;;;1.83;;
33206;SDS011;19565;46.602;11.534;2024-01-27T02:21:13;2.47;;;2.33;;
33206;SDS011;19565;46.602;11.534;2024-01-27T02:23:44;1.03;;;1.03;;
33206;SDS011;19565;46.602;11.534;2024-01-27T02:26:14;0.90;;;0.90;;
33206;SDS011;19565;46.602;11.534;2024-01-27T02:28:42;1.37;;;1.27;;
33206;SDS011;19565;46.602;11.534;2024-01-27T02:31:13;1.13;;;1.13;;
33206;SDS011;19565;46.602;11.534;2024-01-27T02:33:42;3.10;;;2.90;;
33206;SDS011;19565;46.602;11.534;2024-01-27T02:36:10;6.10;;;4.93;;
33206;SDS011;19565;46.602;11.534;2024-01-27T02:38:39;4.17;;;3.97;;
33206;SDS011;19565;46.602;11.534;2024-01-27T02:41:07;3.60;;;3.40;;
33206;SDS011;19565;46.602;11.534;2024-01-27T02:43:38;4.20;;;3.93;;
33206;SDS011;19565;46.602;11.534;2024-01-27T02:46:07;3.40;;;3.20;;
33206;SDS011;19565;46.602;11.534;2024-01-27T02:48:36;4.30;;;4.10;;
33206;SDS011;19565;46.602;11.534;2024-01-27T02:51:07;3.50;;;3.30;;
33206;SDS011;19565;46.602;11.534;2024-01-27T02:53:35;4.00;;;3.80;;
33206;SDS011;19565;46.602;11.534;2024-01-27T02:56:05;3.90;;;3.70;;
33206;SDS011;19565;46.602;11.534;2024-01-27T02:58:37;4.07;;;3.87;;
33206;SDS011;19565;46.602;11.534;2024-01-27T03:01:08;4.27;;;3.97;;
33206;SDS011;19565;46.602;11.534;2024-01-27T03:03:36;4.17;;;3.90;;
33206;SDS011;19565;46.602;11.534;2024-01-27T03:06:05;4.33;;;4.13;;
33206;SDS011;19565;46.602;11.534;2024-01-27T03:08:33;5.63;;;5.07;;
33206;SDS011;19565;46.602;11.534;2024-01-27T03:11:01;3.93;;;3.73;;
33206;SDS011;19565;46.602;11.534;2024-01-27T03:13:29;5.23;;;4.93;;
33206;SDS011;19565;46.602;11.534;2024-01-27T03:15:59;5.03;;;4.73;;
33206;SDS011;19565;46.602;11.534;2024-01-27T03:18:27;12.23;;;11.47;;
33206;SDS011;19565;46.602;11.534;2024-01-27T03:20:56;1.67;;;1.53;;
33206;SDS011;19565;46.602;11.534;2024-01-27T03:23:24;1.00;;;1.00;;
33206;SDS011;19565;46.602;11.534;2024-01-27T03:25:53;0.73;;;0.73;;
33206;SDS011;19565;46.602;11.534;2024-01-27T03:28:21;3.50;;;1.73;;
33206;SDS011;19565;46.602;11.534;2024-01-27T03:30:49;0.73;;;0.73;;
33206;SDS011;19565;46.602;11.534;2024-01-27T03:33:18;1.97;;;1.50;;
33206;SDS011;19565;46.602;11.534;2024-01-27T03:35:49;1.03;;;1.03;;
33206;SDS011;19565;46.602;11.534;2024-01-27T03:38:17;1.00;;;1.00;;
33206;SDS011;19565;46.602;11.534;2024-01-27T03:40:45;0.90;;;0.90;;
33206;SDS011;19565;46.602;11.534;2024-01-27T03:43:13;0.70;;;0.70;;
33206;SDS011;19565;46.602;11.534;2024-01-27T03:45:41;2.73;;;1.10;;
33206;SDS011;19565;46.602;11.534;2024-01-27T03:48:09;0.80;;;0.80;;
33206;SDS011;19565;46.602;11.534;2024-01-27T03:50:39;0.70;;;0.70;;
33206;SDS011;19565;46.602;11.534;2024-01-27T03:53:07;0.70;;;0.70;;
33206;SDS011;19565;46.602;11.534;2024-01-27T03:55:35;0.63;;;0.63;;
33206;SDS011;19565;46.602;11.534;2024-01-27T03:58:04;0.80;;;0.80;;
33206;SDS011;19565;46.602;11.534;2024-01-27T04:00:32;1.00;;;1.00;;
33206;SDS011;19565;46.602;11.534;2024-01-27T04:03:00;0.83;;;0.83;;
33206;SDS011;19565;46.602;11.534;2024-01-27T04:05:29;0.80;;;0.80;;
33206;SDS011;19565;46.602;11.534;2024-01-27T04:08:02;3.60;;;3.40;;
33206;SDS011;19565;46.602;11.534;2024-01-27T04:10:30;3.60;;;3.33;;
33206;SDS011;19565;46.602;11.534;2024-01-27T04:12:58;3.10;;;2.90;;
33206;SDS011;19565;46.602;11.534;2024-01-27T04:15:27;2.97;;;2.87;;
33206;SDS011;19565;46.602;11.534;2024-01-27T04:17:55;3.00;;;2.90;;
33206;SDS011;19565;46.602;11.534;2024-01-27T04:20:23;3.50;;;3.30;;
33206;SDS011;19565;46.602;11.534;2024-01-27T04:22:51;3.73;;;3.53;;
33206;SDS011;19565;46.602;11.534;2024-01-27T04:25:22;4.70;;;4.30;;
33206;SDS011;19565;46.602;11.534;2024-01-27T04:27:50;5.67;;;5.20;;
33206;SDS011;19565;46.602;11.534;2024-01-27T04:30:18;4.20;;;4.00;;
33206;SDS011;19565;46.602;11.534;2024-01-27T04:32:47;4.50;;;4.30;;
33206;SDS011;19565;46.602;11.534;2024-01-27T04:35:15;4.53;;;4.33;;
33206;SDS011;19565;46.602;11.534;2024-01-27T04:37:44;4.90;;;4.60;;
33206;SDS011;19565;46.602;11.534;2024-01-27T04:40:12;4.90;;;4.60;;
33206;SDS011;19565;46.602;11.534;2024-01-27T04:42:41;6.57;;;6.07;;
33206;SDS011;19565;46.602;11.534;2024-01-27T04:45:10;4.47;;;4.27;;
33206;SDS011;19565;46.602;11.534;2024-01-27T04:47:42;5.43;;;5.03;;
33206;SDS011;19565;46.602;11.534;2024-01-27T04:50:10;4.97;;;4.67;;
33206;SDS011;19565;46.602;11.534;2024-01-27T04:52:38;1.00;;;1.00;;
33206;SDS011;19565;46.602;11.534;2024-01-27T04:55:08;1.03;;;1.03;;
33206;SDS011;19565;46.602;11.534;2024-01-27T04:57:36;0.70;;;0.70;;
33206;SDS011;19565;46.602;11.534;2024-01-27T05:00:06;0.90;;;0.90;;
33206;SDS011;19565;46.602;11.534;2024-01-27T05:02:39;0.80;;;0.80;;
33206;SDS011;19565;46.602;11.534;2024-01-27T05:05:08;1.33;;;1.23;;
33206;SDS011;19565;46.602;11.534;2024-01-27T05:07:37;2.40;;;2.20;;
33206;SDS011;19565;46.602;11.534;2024-01-27T05:10:05;1.43;;;1.33;;
33206;SDS011;19565;46.602;11.534;2024-01-27T05:12:37;0.90;;;0.90;;
33206;SDS011;19565;46.602;11.534;2024-01-27T05:15:07;1.30;;;1.30;;
33206;SDS011;19565;46.602;11.534;2024-01-27T05:17:37;1.57;;;1.47;;
33206;SDS011;19565;46.602;11.534;2024-01-27T05:20:06;1.27;;;1.27;;
33206;SDS011;19565;46.602;11.534;2024-01-27T05:22:35;1.57;;;1.47;;
33206;SDS011;19565;46.602;11.534;2024-01-27T05:25:05;1.93;;;1.77;;
33206;SDS011;19565;46.602;11.534;2024-01-27T05:27:33;1.47;;;1.40;;
33206;SDS011;19565;46.602;11.534;2024-01-27T05:30:02;0.90;;;0.90;;
33206;SDS011;19565;46.602;11.534;2024-01-27T05:32:32;1.80;;;1.70;;
33206;SDS011;19565;46.602;11.534;2024-01-27T05:35:00;1.53;;;1.43;;
33206;SDS011;19565;46.602;11.534;2024-01-27T05:37:29;2.20;;;1.23;;
33206;SDS011;19565;46.602;11.534;2024-01-27T05:39:57;2.00;;;1.90;;
33206;SDS011;19565;46.602;11.534;2024-01-27T05:42:26;1.20;;;1.20;;
33206;SDS011;19565;46.602;11.534;2024-01-27T05:44:54;1.40;;;1.30;;
33206;SDS011;19565;46.602;11.534;2024-01-27T05:47:22;1.70;;;1.60;;
33206;SDS011;19565;46.602;11.534;2024-01-27T05:49:52;1.10;;;1.10;;
33206;SDS011;19565;46.602;11.534;2024-01-27T05:52:20;1.00;;;1.00;;
33206;SDS011;19565;46.602;11.534;2024-01-27T05:54:51;6.43;;;1.60;;
33206;SDS011;19565;46.602;11.534;2024-01-27T05:57:19;1.80;;;1.70;;
33206;SDS011;19565;46.602;11.534;2024-01-27T05:59:48;4.40;;;4.10;;
33206;SDS011;19565;46.602;11.534;2024-01-27T06:02:16;5.03;;;4.73;;
33206;SDS011;19565;46.602;11.534;2024-01-27T06:04:45;4.80;;;4.50;;
33206;SDS011;19565;46.602;11.534;2024-01-27T06:07:15;4.07;;;3.87;;
33206;SDS011;19565;46.602;11.534;2024-01-27T06:09:43;4.63;;;4.37;;
33206;SDS011;19565;46.602;11.534;2024-01-27T06:12:11;4.23;;;4.03;;
33206;SDS011;19565;46.602;11.534;2024-01-27T06:14:40;5.00;;;4.70;;
33206;SDS011;19565;46.602;11.534;2024-01-27T06:17:09;5.30;;;4.90;;
33206;SDS011;19565;46.602;11.534;2024-01-27T06:19:37;4.67;;;4.37;;
33206;SDS011;19565;46.602;11.534;2024-01-27T06:22:05;6.00;;;5.50;;
33206;SDS011;19565;46.602;11.534;2024-01-27T06:24:35;5.90;;;5.60;;
33206;SDS011;19565;46.602;11.534;2024-01-27T06:27:09;5.57;;;5.27;;
33206;SDS011;19565;46.602;11.534;2024-01-27T06:29:38;5.37;;;5.07;;
33206;SDS011;19565;46.602;11.534;2024-01-27T06:32:06;5.10;;;4.80;;
33206;SDS011;19565;46.602;11.534;2024-01-27T06:34:38;5.37;;;5.07;;
33206;SDS011;19565;46.602;11.534;2024-01-27T06:37:07;5.60;;;5.17;;
33206;SDS011;19565;46.602;11.534;2024-01-27T06:39:36;5.10;;;4.70;;
33206;SDS011;19565;46.602;11.534;2024-01-27T06:42:04;4.93;;;4.63;;
33206;SDS011;19565;46.602;11.534;2024-01-27T06:44:33;0.87;;;0.87;;
33206;SDS011;19565;46.602;11.534;2024-01-27T06:47:01;0.70;;;0.70;;
33206;SDS011;19565;46.602;11.534;2024-01-27T06:49:29;1.70;;;1.60;;
33206;SDS011;19565;46.602;11.534;2024-01-27T06:52:00;2.00;;;1.63;;
33206;SDS011;19565;46.602;11.534;2024-01-27T06:54:29;0.73;;;0.73;;
33206;SDS011;19565;46.602;11.534;2024-01-27T06:57:00;0.80;;;0.80;;
33206;SDS011;19565;46.602;11.534;2024-01-27T06:59:29;2.73;;;1.73;;
33206;SDS011;19565;46.602;11.534;2024-01-27T07:01:57;0.93;;;0.93;;
33206;SDS011;19565;46.602;11.534;2024-01-27T07:04:25;1.13;;;1.13;;
33206;SDS011;19565;46.602;11.534;2024-01-27T07:06:53;5.13;;;2.70;;
33206;SDS011;19565;46.602;11.534;2024-01-27T07:09:21;0.80;;;0.80;;
33206;SDS011;19565;46.602;11.534;2024-01-27T07:11:50;2.00;;;1.83;;
33206;SDS011;19565;46.602;11.534;2024-01-27T07:14:20;1.67;;;1.57;;
33206;SDS011;19565;46.602;11.534;2024-01-27T07:16:48;1.30;;;1.20;;
33206;SDS011;19565;46.602;11.534;2024-01-27T07:19:17;0.87;;;0.83;;
33206;SDS011;19565;46.602;11.534;2024-01-27T07:21:45;2.13;;;2.03;;
33206;SDS011;19565;46.602;11.534;2024-01-27T07:24:13;1.73;;;1.63;;
33206;SDS011;19565;46.602;11.534;2024-01-27T07:26:41;12.13;;;1.77;;
33206;SDS011;19565;46.602;11.534;2024-01-27T07:29:09;5.13;;;1.63;;
33206;SDS011;19565;46.602;11.534;2024-01-27T07:31:39;0.77;;;0.77;;
33206;SDS011;19565;46.602;11.534;2024-01-27T07:34:07;1.17;;;1.17;;
33206;SDS011;19565;46.602;11.534;2024-01-27T07:36:36;3.70;;;3.50;;
33206;SDS011;19565;46.602;11.534;2024-01-27T07:39:04;2.77;;;2.67;;
33206;SDS011;19565;46.602;11.534;2024-01-27T07:41:32;3.10;;;2.90;;
33206;SDS011;19565;46.602;11.534;2024-01-27T07:44:06;2.80;;;2.70;;
33206;SDS011;19565;46.602;11.534;2024-01-27T07:46:35;3.30;;;3.10;;
33206;SDS011;19565;46.602;11.534;2024-01-27T07:49:05;3.47;;;3.27;;
33206;SDS011;19565;46.602;11.534;2024-01-27T07:51:33;3.40;;;3.20;;
33206;SDS011;19565;46.602;11.534;2024-01-27T07:54:02;5.20;;;4.70;;
33206;SDS011;19565;46.602;11.534;2024-01-27T07:56:30;3.93;;;3.70;;
33206;SDS011;19565;46.602;11.534;2024-01-27T07:58:58;4.10;;;3.90;;
33206;SDS011;19565;46.602;11.534;2024-01-27T08:01:27;6.17;;;5.60;;
33206;SDS011;19565;46.602;11.534;2024-01-27T08:03:55;5.43;;;5.03;;
33206;SDS011;19565;46.602;11.534;2024-01-27T08:06:28;5.30;;;5.00;;
33206;SDS011;19565;46.602;11.534;2024-01-27T08:08:59;1.70;;;1.60;;
33206;SDS011;19565;46.602;11.534;2024-01-27T08:11:27;1.27;;;1.27;;
33206;SDS011;19565;46.602;11.534;2024-01-27T08:14:00;2.50;;;2.30;;
33206;SDS011;19565;46.602;11.534;2024-01-27T08:16:28;1.17;;;1.17;;
33206;SDS011;19565;46.602;11.534;2024-01-27T08:18:56;3.80;;;2.50;;
33206;SDS011;19565;46.602;11.534;2024-01-27T08:21:24;1.47;;;1.40;;
33206;SDS011;19565;46.602;11.534;2024-01-27T08:23:54;1.00;;;1.00;;
33206;SDS011;19565;46.602;11.534;2024-01-27T08:26:22;1.10;;;1.10;;
33206;SDS011;19565;46.602;11.534;2024-01-27T08:28:50;3.67;;;3.47;;
33206;SDS011;19565;46.602;11.534;2024-01-27T08:31:18;4.30;;;4.10;;
33206;SDS011;19565;46.602;11.534;2024-01-27T08:33:52;7.00;;;6.40;;
33206;SDS011;19565;46.602;11.534;2024-01-27T08:36:20;6.83;;;6.40;;
33206;SDS011;19565;46.602;11.534;2024-01-27T08:38:48;5.90;;;5.60;;
33206;SDS011;19565;46.602;11.534;2024-01-27T08:41:18;7.03;;;6.63;;
33206;SDS011;19565;46.602;11.534;2024-01-27T08:43:46;6.57;;;6.10;;
33206;SDS011;19565;46.602;11.534;2024-01-27T08:46:14;7.50;;;7.00;;
33206;SDS011;19565;46.602;11.534;2024-01-27T08:48:44;7.07;;;6.67;;
33206;SDS011;19565;46.602;11.534;2024-01-27T08:51:12;7.03;;;6.63;;
33206;SDS011;19565;46.602;11.534;2024-01-27T08:53:42;7.53;;;7.03;;
33206;SDS011;19565;46.602;11.534;2024-01-27T08:56:15;7.93;;;7.43;;
33206;SDS011;19565;46.602;11.534;2024-01-27T08:58:45;8.53;;;7.60;;
33206;SDS011;19565;46.602;11.534;2024-01-27T09:01:15;7.50;;;7.00;;
33206;SDS011;19565;46.602;11.534;2024-01-27T09:03:44;7.70;;;7.20;;
33206;SDS011;19565;46.602;11.534;2024-01-27T09:06:13;7.53;;;7.10;;
33206;SDS011;19565;46.602;11.534;2024-01-27T09:08:42;7.77;;;7.30;;
33206;SDS011;19565;46.602;11.534;2024-01-27T09:11:11;8.70;;;8.20;;
33206;SDS011;19565;46.602;11.534;2024-01-27T09:13:39;9.13;;;8.60;;
33206;SDS011;19565;46.602;11.534;2024-01-27T09:16:09;8.80;;;8.20;;
33206;SDS011;19565;46.602;11.534;2024-01-27T09:18:40;8.43;;;7.83;;
33206;SDS011;19565;46.602;11.534;2024-01-27T09:21:08;8.50;;;8.00;;
33206;SDS011;19565;46.602;11.534;2024-01-27T09:23:36;11.20;;;10.20;;
33206;SDS011;19565;46.602;11.534;2024-01-27T09:26:05;8.80;;;8.30;;
33206;SDS011;19565;46.602;11.534;2024-01-27T09:28:38;9.00;;;8.50;;
33206;SDS011;19565;46.602;11.534;2024-01-27T09:31:14;9.73;;;9.13;;
33206;SDS011;19565;46.602;11.534;2024-01-27T09:33:44;9.17;;;8.67;;
33206;SDS011;19565;46.602;11.534;2024-01-27T09:36:13;11.37;;;10.47;;
33206;SDS011;19565;46.602;11.534;2024-01-27T09:38:41;10.23;;;9.53;;
33206;SDS011;19565;46.602;11.534;2024-01-27T09:41:09;11.40;;;10.53;;
33206;SDS011;19565;46.602;11.534;2024-01-27T09:43:40;11.43;;;10.83;;
33206;SDS011;19565;46.602;11.534;2024-01-27T09:46:11;12.83;;;12.13;;
33206;SDS011;19565;46.602;11.534;2024-01-27T09:48:40;12.47;;;11.63;;
33206;SDS011;19565;46.602;11.534;2024-01-27T09:51:10;12.67;;;11.97;;
33206;SDS011;19565;46.602;11.534;2024-01-27T09:53:38;24.20;;;13.67;;
33206;SDS011;19565;46.602;11.534;2024-01-27T09:56:08;13.20;;;12.50;;
33206;SDS011;19565;46.602;11.534;2024-01-27T09:58:37;13.37;;;12.67;;
33206;SDS011;19565;46.602;11.534;2024-01-27T10:01:06;14.37;;;13.67;;
33206;SDS011;19565;46.602;11.534;2024-01-27T10:03:36;12.67;;;11.97;;
33206;SDS011;19565;46.602;11.534;2024-01-27T10:06:09;16.23;;;12.10;;
33206;SDS011;19565;46.602;11.534;2024-01-27T10:08:38;12.83;;;12.13;;
33206;SDS011;19565;46.602;11.534;2024-01-27T10:11:06;14.70;;;13.83;;
33206;SDS011;19565;46.602;11.534;2024-01-27T10:13:35;12.27;;;11.67;;
33206;SDS011;19565;46.602;11.534;2024-01-27T10:16:04;3.83;;;3.63;;
33206;SDS011;19565;46.602;11.534;2024-01-27T10:18:33;4.57;;;4.27;;
33206;SDS011;19565;46.602;11.534;2024-01-27T10:21:13;4.17;;;3.97;;
33206;SDS011;19565;46.602;11.534;2024-01-27T10:23:41;3.83;;;3.63;;
33206;SDS011;19565;46.602;11.534;2024-01-27T10:26:09;13.43;;;12.38;;
33206;SDS011;19565;46.602;11.534;2024-01-27T10:28:38;14.30;;;13.60;;
33206;SDS011;19565;46.602;11.534;2024-01-27T10:31:08;16.00;;;15.20;;
33206;SDS011;19565;46.602;11.534;2024-01-27T10:33:37;15.87;;;15.07;;
33206;SDS011;19565;46.602;11.534;2024-01-27T10:36:05;17.33;;;16.53;;
33206;SDS011;19565;46.602;11.534;2024-01-27T10:38:36;19.03;;;18.13;;
33206;SDS011;19565;46.602;11.534;2024-01-27T10:41:07;19.93;;;19.03;;
33206;SDS011;19565;46.602;11.534;2024-01-27T10:43:38;20.43;;;19.53;;
33206;SDS011;19565;46.602;11.534;2024-01-27T10:46:08;18.93;;;18.03;;
33206;SDS011;19565;46.602;11.534;2024-01-27T10:48:37;22.90;;;21.80;;
33206;SDS011;19565;46.602;11.534;2024-01-27T10:51:07;20.87;;;19.97;;
33206;SDS011;19565;46.602;11.534;2024-01-27T10:53:38;21.90;;;20.90;;
33206;SDS011;19565;46.602;11.534;2024-01-27T10:56:07;25.25;;;23.85;;
33206;SDS011;19565;46.602;11.534;2024-01-27T10:58:37;25.37;;;24.27;;
33206;SDS011;19565;46.602;11.534;2024-01-27T11:01:09;24.50;;;23.40;;
33206;SDS011;19565;46.602;11.534;2024-01-27T11:03:39;22.50;;;21.50;;
33206;SDS011;19565;46.602;11.534;2024-01-27T11:06:09;22.63;;;21.63;;
33206;SDS011;19565;46.602;11.534;2024-01-27T11:08:41;23.97;;;22.80;;
33206;SDS011;19565;46.602;11.534;2024-01-27T11:11:10;23.23;;;22.23;;
33206;SDS011;19565;46.602;11.534;2024-01-27T11:13:39;22.57;;;21.57;;
33206;SDS011;19565;46.602;11.534;2024-01-27T11:16:14;21.53;;;20.53;;
33206;SDS011;19565;46.602;11.534;2024-01-27T11:18:44;22.40;;;21.40;;
33206;SDS011;19565;46.602;11.534;2024-01-27T11:21:14;22.70;;;21.70;;
33206;SDS011;19565;46.602;11.534;2024-01-27T11:23:45;24.03;;;22.93;;
33206;SDS011;19565;46.602;11.534;2024-01-27T11:26:17;24.13;;;22.93;;
33206;SDS011;19565;46.602;11.534;2024-01-27T11:28:47;23.50;;;22.50;;
33206;SDS011;19565;46.602;11.534;2024-01-27T11:31:16;23.93;;;22.83;;
33206;SDS011;19565;46.602;11.534;2024-01-27T11:33:46;23.43;;;22.43;;
33206;SDS011;19565;46.602;11.534;2024-01-27T11:36:20;23.30;;;22.30;;
33206;SDS011;19565;46.602;11.534;2024-01-27T11:38:52;23.87;;;22.87;;
33206;SDS011;19565;46.602;11.534;2024-01-27T11:41:26;25.40;;;24.30;;
33206;SDS011;19565;46.602;11.534;2024-01-27T11:43:55;25.70;;;24.60;;
33206;SDS011;19565;46.602;11.534;2024-01-27T11:46:23;25.97;;;24.87;;
33206;SDS011;19565;46.602;11.534;2024-01-27T11:48:53;11.20;;;10.60;;
33206;SDS011;19565;46.602;11.534;2024-01-27T11:51:21;11.20;;;10.60;;
33206;SDS011;19565;46.602;11.534;2024-01-27T11:53:53;10.67;;;10.07;;
33206;SDS011;19565;46.602;11.534;2024-01-27T11:56:21;10.70;;;10.10;;
33206;SDS011;19565;46.602;11.534;2024-01-27T11:58:49;10.70;;;10.10;;
33206;SDS011;19565;46.602;11.534;2024-01-27T12:01:17;10.47;;;9.87;;
33206;SDS011;19565;46.602;11.534;2024-01-27T12:03:46;10.53;;;9.93;;
33206;SDS011;19565;46.602;11.534;2024-01-27T12:06:15;10.73;;;10.13;;
33206;SDS011;19565;46.602;11.534;2024-01-27T12:08:44;11.03;;;10.43;;
33206;SDS011;19565;46.602;11.534;2024-01-27T12:11:17;11.20;;;10.60;;
33206;SDS011;19565;46.602;11.534;2024-01-27T12:13:50;10.80;;;10.20;;
33206;SDS011;19565;46.602;11.534;2024-01-27T12:16:19;10.30;;;9.70;;
33206;SDS011;19565;46.602;11.534;2024-01-27T12:18:51;11.00;;;10.40;;
33206;SDS011;19565;46.602;11.534;2024-01-27T12:21:20;10.60;;;10.00;;
33206;SDS011;19565;46.602;11.534;2024-01-27T12:23:51;11.10;;;10.50;;
33206;SDS011;19565;46.602;11.534;2024-01-27T12:26:22;10.97;;;10.37;;
33206;SDS011;19565;46.602;11.534;2024-01-27T12:28:50;10.60;;;10.00;;
33206;SDS011;19565;46.602;11.534;2024-01-27T12:31:18;10.50;;;9.80;;
33206;SDS011;19565;46.602;11.534;2024-01-27T12:33:50;10.63;;;10.03;;
33206;SDS011;19565;46.602;11.534;2024-01-27T12:36:20;10.37;;;9.77;;
33206;SDS011;19565;46.602;11.534;2024-01-27T12:38:56;10.40;;;9.80;;
33206;SDS011;19565;46.602;11.534;2024-01-27T12:41:27;10.13;;;9.57;;
33206;SDS011;19565;46.602;11.534;2024-01-27T12:43:56;10.50;;;9.80;;
33206;SDS011;19565;46.602;11.534;2024-01-27T12:46:24;10.03;;;9.47;;
33206;SDS011;19565;46.602;11.534;2024-01-27T12:48:52;9.90;;;9.40;;
33206;SDS011;19565;46.602;11.534;2024-01-27T12:51:21;10.27;;;9.67;;
33206;SDS011;19565;46.602;11.534;2024-01-27T12:53:51;10.50;;;9.90;;
33206;SDS011;19565;46.602;11.534;2024-01-27T12:56:19;10.20;;;9.60;;
33206;SDS011;19565;46.602;11.534;2024-01-27T12:58:49;10.40;;;9.80;;
33206;SDS011;19565;46.602;11.534;2024-01-27T13:01:17;10.40;;;9.80;;
33206;SDS011;19565;46.602;11.534;2024-01-27T13:03:45;10.40;;;9.80;;
33206;SDS011;19565;46.602;11.534;2024-01-27T13:06:14;10.10;;;9.50;;
33206;SDS011;19565;46.602;11.534;2024-01-27T13:08:42;10.30;;;9.70;;
33206;SDS011;19565;46.602;11.534;2024-01-27T13:11:10;10.30;;;9.70;;
33206;SDS011;19565;46.602;11.534;2024-01-27T13:13:40;10.27;;;9.67;;
33206;SDS011;19565;46.602;11.534;2024-01-27T13:16:10;10.23;;;9.63;;
33206;SDS011;19565;46.602;11.534;2024-01-27T13:18:38;10.20;;;9.60;;
33206;SDS011;19565;46.602;11.534;2024-01-27T13:21:06;12.13;;;11.53;;
33206;SDS011;19565;46.602;11.534;2024-01-27T13:23:35;10.90;;;10.30;;
33206;SDS011;19565;46.602;11.534;2024-01-27T13:26:03;10.47;;;9.87;;
33206;SDS011;19565;46.602;11.534;2024-01-27T13:28:44;10.23;;;9.63;;
33206;SDS011;19565;46.602;11.534;2024-01-27T13:31:14;10.80;;;10.20;;
33206;SDS011;19565;46.602;11.534;2024-01-27T13:33:42;10.73;;;10.13;;
33206;SDS011;19565;46.602;11.534;2024-01-27T13:36:10;9.83;;;9.33;;
33206;SDS011;19565;46.602;11.534;2024-01-27T13:38:39;10.40;;;9.80;;
33206;SDS011;19565;46.602;11.534;2024-01-27T13:41:07;10.43;;;9.83;;
33206;SDS011;19565;46.602;11.534;2024-01-27T13:43:35;9.77;;;9.27;;
33206;SDS011;19565;46.602;11.534;2024-01-27T13:46:03;10.20;;;9.60;;
33206;SDS011;19565;46.602;11.534;2024-01-27T13:48:33;9.70;;;9.20;;
33206;SDS011;19565;46.602;11.534;2024-01-27T13:51:02;9.60;;;9.10;;
33206;SDS011;19565;46.602;11.534;2024-01-27T13:53:30;9.63;;;9.13;;
33206;SDS011;19565;46.602;11.534;2024-01-27T13:56:11;9.50;;;9.00;;
33206;SDS011;19565;46.602;11.534;2024-01-27T13:58:40;10.18;;;9.48;;
33206;SDS011;19565;46.602;11.534;2024-01-27T14:01:09;16.27;;;15.48;;
33206;SDS011;19565;46.602;11.534;2024-01-27T14:03:39;15.50;;;14.80;;
33206;SDS011;19565;46.602;11.534;2024-01-27T14:06:08;17.70;;;16.83;;
33206;SDS011;19565;46.602;11.534;2024-01-27T14:08:39;17.17;;;16.38;;
33206;SDS011;19565;46.602;11.534;2024-01-27T14:11:08;17.65;;;16.85;;
33206;SDS011;19565;46.602;11.534;2024-01-27T14:13:36;17.20;;;16.40;;
33206;SDS011;19565;46.602;11.534;2024-01-27T14:16:04;17.33;;;16.52;;
33206;SDS011;19565;46.602;11.534;2024-01-27T14:18:33;17.70;;;16.90;;
33206;SDS011;19565;46.602;11.534;2024-01-27T14:21:04;17.40;;;16.60;;
33206;SDS011;19565;46.602;11.534;2024-01-27T14:23:32;17.02;;;16.23;;
33206;SDS011;19565;46.602;11.534;2024-01-27T14:26:01;17.63;;;16.83;;
33206;SDS011;19565;46.602;11.534;2024-01-27T14:28:29;17.35;;;16.55;;
33206;SDS011;19565;46.602;11.534;2024-01-27T14:30:57;17.92;;;17.13;;
33206;SDS011;19565;46.602;11.534;2024-01-27T14:33:25;17.20;;;16.40;;
33206;SDS011;19565;46.602;11.534;2024-01-27T14:35:54;19.17;;;18.27;;
33206;SDS011;19565;46.602;11.534;2024-01-27T14:38:23;9.63;;;9.13;;
33206;SDS011;19565;46.602;11.534;2024-01-27T14:40:52;9.60;;;9.10;;